createdAt,value
2022-07-29T00:01:03.735Z,99227.00
2022-07-29T00:03:39.723Z,99229.80
2022-07-29T00:06:16.851Z,99226.00
2022-07-29T00:08:52.874Z,99224.00
2022-07-29T00:11:28.933Z,99225.00
2022-07-29T00:14:05.084Z,99227.00
2022-07-29T00:16:41.470Z,99226.00
2022-07-29T00:19:17.547Z,99230.40
2022-07-29T00:21:53.542Z,99223.40
2022-07-29T00:24:29.441Z,99227.80
2022-07-29T00:27:05.659Z,99227.60
2022-07-29T00:29:41.846Z,99228.00
2022-07-29T00:32:18.634Z,99232.00
2022-07-29T00:35:12.899Z,99235.20
2022-07-29T00:37:49.060Z,99238.80
2022-07-29T00:40:25.275Z,99238.80
2022-07-29T00:43:01.264Z,99235.40
2022-07-29T00:45:37.794Z,99230.80
2022-07-29T00:48:13.909Z,99226.80
2022-07-29T00:50:51.445Z,99226.00
2022-07-29T00:53:28.616Z,99230.00
2022-07-29T00:56:05.088Z,99227.00
2022-07-29T00:58:42.119Z,99222.80
2022-07-29T01:01:18.164Z,99221.80
2022-07-29T01:03:54.704Z,99219.20
2022-07-29T01:06:31.202Z,99213.60
2022-07-29T01:09:08.003Z,99213.60
2022-07-29T01:11:45.177Z,99211.40
2022-07-29T01:14:23.325Z,99214.40
2022-07-29T01:17:14.644Z,99211.40
2022-07-29T01:20:04.327Z,99208.80
2022-07-29T01:23:14.178Z,99211.60
2022-07-29T01:26:29.394Z,99205.40
2022-07-29T01:29:21.048Z,99207.80
2022-07-29T01:32:01.421Z,99208.80
2022-07-29T01:34:49.741Z,99209.60
2022-07-29T01:37:38.779Z,99206.60
2022-07-29T01:40:26.265Z,99203.20
2022-07-29T01:43:12.714Z,99204.20
2022-07-29T01:45:58.860Z,99205.20
2022-07-29T01:48:48.121Z,99204.80
2022-07-29T01:51:34.658Z,99201.60
2022-07-29T01:54:19.032Z,99200.80
2022-07-29T01:57:00.455Z,99201.00
2022-07-29T01:59:39.498Z,99204.20
2022-07-29T02:02:18.581Z,99204.20
2022-07-29T02:04:56.703Z,99201.00
2022-07-29T02:07:36.607Z,99191.80
2022-07-29T02:10:17.585Z,99195.60
2022-07-29T02:12:58.653Z,99197.20
2022-07-29T02:15:38.573Z,99195.80
2022-07-29T02:18:19.262Z,99188.00
2022-07-29T02:21:01.416Z,99185.80
2022-07-29T02:23:50.801Z,99186.00
2022-07-29T02:26:31.355Z,99182.40
2022-07-29T02:29:08.902Z,99184.80
2022-07-29T02:31:48.626Z,99179.20
2022-07-29T02:34:25.945Z,99181.40
2022-07-29T02:37:05.039Z,99180.40
2022-07-29T02:39:45.903Z,99176.80
2022-07-29T02:42:25.564Z,99175.80
2022-07-29T02:45:01.895Z,99177.60
2022-07-29T02:47:46.116Z,99169.40
2022-07-29T02:50:32.069Z,99167.00
2022-07-29T02:53:18.470Z,99168.40
2022-07-29T02:56:01.686Z,99166.20
2022-07-29T02:58:43.710Z,99158.20
2022-07-29T03:01:25.380Z,99158.00
2022-07-29T03:04:07.081Z,99158.80
2022-07-29T03:06:45.494Z,99158.00
2022-07-29T03:09:23.028Z,99157.80
2022-07-29T03:11:59.815Z,99159.00
2022-07-29T03:14:37.371Z,99159.00
2022-07-29T03:17:15.621Z,99155.60
2022-07-29T03:19:52.269Z,99163.60
2022-07-29T03:22:29.389Z,99161.20
2022-07-29T03:25:13.835Z,99161.60
2022-07-29T03:27:50.734Z,99164.40
2022-07-29T03:30:26.912Z,99165.80
2022-07-29T03:33:03.202Z,99160.80
2022-07-29T03:35:49.839Z,99162.80
2022-07-29T03:38:31.966Z,99169.60
2022-07-29T03:41:16.709Z,99164.00
2022-07-29T03:44:00.928Z,99162.20
2022-07-29T03:46:41.225Z,99164.80
2022-07-29T03:49:19.131Z,99171.60
2022-07-29T03:51:55.500Z,99166.20
2022-07-29T03:54:31.695Z,99172.40
2022-07-29T03:57:09.925Z,99179.00
2022-07-29T03:59:46.852Z,99181.40
2022-07-29T04:02:28.693Z,99187.00
2022-07-29T04:05:13.844Z,99180.80
2022-07-29T04:07:52.671Z,99182.20
2022-07-29T04:10:31.971Z,99179.00
2022-07-29T04:13:09.994Z,99179.40
2022-07-29T04:15:46.026Z,99180.40
2022-07-29T04:18:22.139Z,99180.40
2022-07-29T04:21:00.184Z,99178.00
2022-07-29T04:23:36.235Z,99179.80
2022-07-29T04:26:28.968Z,99176.00
2022-07-29T04:29:05.748Z,99174.20
2022-07-29T04:31:41.754Z,99178.00
2022-07-29T04:34:19.079Z,99180.80
2022-07-29T04:36:55.770Z,99188.20
2022-07-29T04:39:32.107Z,99187.40
2022-07-29T04:42:11.439Z,99188.00
2022-07-29T04:44:47.392Z,99180.40
2022-07-29T04:47:26.408Z,99183.40
2022-07-29T04:50:02.468Z,99182.40
2022-07-29T04:52:38.618Z,99181.60
2022-07-29T04:55:16.005Z,99182.00
2022-07-29T04:57:51.994Z,99186.20
2022-07-29T05:00:33.144Z,99184.00
2022-07-29T05:03:09.874Z,99189.80
2022-07-29T05:05:45.857Z,99184.60
2022-07-29T05:08:21.953Z,99183.80
2022-07-29T05:10:58.332Z,99183.00
2022-07-29T05:13:47.965Z,99190.20
2022-07-29T05:16:24.081Z,99186.60
2022-07-29T05:19:00.204Z,99174.40
2022-07-29T05:21:36.271Z,99177.60
2022-07-29T05:24:13.207Z,99173.80
2022-07-29T05:26:49.462Z,99176.80
2022-07-29T05:29:43.138Z,99176.60
2022-07-29T05:32:21.413Z,99183.40
2022-07-29T05:34:57.293Z,99191.40
2022-07-29T05:37:33.561Z,99190.40
2022-07-29T05:40:11.984Z,99191.00
2022-07-29T05:42:48.575Z,99182.80
2022-07-29T05:45:25.586Z,99185.60
2022-07-29T05:48:01.639Z,99185.80
2022-07-29T05:50:37.593Z,99185.60
2022-07-29T05:53:24.152Z,99190.20
2022-07-29T05:56:00.321Z,99188.20
2022-07-29T05:58:36.549Z,99187.60
2022-07-29T06:01:12.688Z,99199.00
2022-07-29T06:03:48.797Z,99202.40
2022-07-29T06:06:25.271Z,99201.60
2022-07-29T06:09:01.634Z,99206.20
2022-07-29T06:11:48.622Z,99206.40
2022-07-29T06:14:24.703Z,99208.60
2022-07-29T06:17:00.768Z,99209.80
2022-07-29T06:19:42.058Z,99198.60
2022-07-29T06:22:20.401Z,99195.60
2022-07-29T06:24:56.540Z,99199.60
2022-07-29T06:27:32.630Z,99198.80
2022-07-29T06:30:11.257Z,99198.40
2022-07-29T06:32:47.376Z,99201.60
2022-07-29T06:35:42.301Z,99204.20
2022-07-29T06:38:31.107Z,99206.00
2022-07-29T06:41:16.983Z,99210.60
2022-07-29T06:43:55.275Z,99213.60
2022-07-29T06:46:33.454Z,99207.00
2022-07-29T06:49:09.602Z,99217.60
2022-07-29T06:51:45.907Z,99210.00
2022-07-29T06:54:22.819Z,99211.00
2022-07-29T06:57:00.218Z,99209.20
2022-07-29T06:59:36.324Z,99205.80
2022-07-29T07:02:12.404Z,99213.00
2022-07-29T07:04:48.358Z,99209.60
2022-07-29T07:07:25.396Z,99207.40
2022-07-29T07:10:01.512Z,99205.40
2022-07-29T07:12:37.487Z,99204.40
2022-07-29T07:15:15.037Z,99210.60
2022-07-29T07:17:51.402Z,99208.40
2022-07-29T07:20:27.450Z,99203.80
2022-07-29T07:23:03.450Z,99191.00
2022-07-29T07:25:39.941Z,99192.60
2022-07-29T07:28:16.074Z,99197.80
2022-07-29T07:30:53.011Z,99194.20
2022-07-29T07:33:29.487Z,99201.60
2022-07-29T07:36:05.751Z,99198.60
2022-07-29T07:38:41.768Z,99197.80
2022-07-29T07:41:17.876Z,99199.40
2022-07-29T07:43:53.899Z,99205.40
2022-07-29T07:46:29.860Z,99208.20
2022-07-29T07:49:05.912Z,99205.80
2022-07-29T07:51:42.025Z,99204.40
2022-07-29T07:54:26.500Z,99202.80
2022-07-29T07:57:02.593Z,99207.80
2022-07-29T07:59:38.631Z,99198.80
2022-07-29T08:02:15.332Z,99205.80
2022-07-29T08:04:51.591Z,99205.20
2022-07-29T08:07:27.572Z,99198.80
2022-07-29T08:10:03.670Z,99192.80
2022-07-29T08:12:39.546Z,99185.60
2022-07-29T08:15:16.118Z,99197.20
2022-07-29T08:17:52.436Z,99189.00
2022-07-29T08:20:28.596Z,99193.60
2022-07-29T08:23:05.486Z,99193.20
2022-07-29T08:25:42.928Z,99193.00
2022-07-29T08:28:18.868Z,99186.20
2022-07-29T08:30:55.063Z,99190.60
2022-07-29T08:33:31.096Z,99188.20
2022-07-29T08:36:08.612Z,99189.40
2022-07-29T08:38:44.577Z,99198.40
2022-07-29T08:41:21.845Z,99183.60
2022-07-29T08:43:58.352Z,99191.40
2022-07-29T08:46:34.343Z,99193.00
2022-07-29T08:49:10.765Z,99196.80
2022-07-29T08:51:53.188Z,99185.00
2022-07-29T08:54:30.043Z,99186.40
2022-07-29T08:57:07.339Z,99193.80
2022-07-29T08:59:48.554Z,99188.40
2022-07-29T09:02:30.278Z,99183.60
2022-07-29T09:05:09.146Z,99182.00
2022-07-29T09:07:49.151Z,99182.20
2022-07-29T09:10:25.589Z,99174.20
2022-07-29T09:13:03.035Z,99180.80
2022-07-29T09:15:39.553Z,99180.00
2022-07-29T09:18:35.038Z,99177.60
2022-07-29T09:21:31.735Z,99182.80
2022-07-29T09:24:11.839Z,99173.80
2022-07-29T09:26:49.981Z,99185.60
2022-07-29T09:29:31.163Z,99179.00
2022-07-29T09:32:14.190Z,99179.80
2022-07-29T09:34:50.264Z,99176.20
2022-07-29T09:37:34.354Z,99174.80
2022-07-29T09:40:20.042Z,99182.20
2022-07-29T09:42:58.332Z,99171.80
2022-07-29T09:45:38.860Z,99163.60
2022-07-29T09:48:24.343Z,99163.80
2022-07-29T09:51:01.113Z,99165.00
2022-07-29T09:53:42.241Z,99150.00
2022-07-29T09:56:18.436Z,99151.00
2022-07-29T09:59:12.247Z,99150.00
2022-07-29T10:01:48.951Z,99152.80
2022-07-29T10:04:25.236Z,99144.40
2022-07-29T10:07:06.572Z,99143.00
2022-07-29T10:09:51.617Z,99143.80
2022-07-29T10:12:28.322Z,99143.20
2022-07-29T10:15:08.215Z,99137.60
2022-07-29T10:17:44.999Z,99135.00
2022-07-29T10:20:21.545Z,99135.00
2022-07-29T10:22:58.324Z,99131.20
2022-07-29T10:25:35.301Z,99133.40
2022-07-29T10:28:16.018Z,99123.20
2022-07-29T10:31:01.223Z,99120.40
2022-07-29T10:33:54.993Z,99126.40
2022-07-29T10:36:54.074Z,99122.80
2022-07-29T10:39:57.008Z,99124.20
2022-07-29T10:42:42.167Z,99130.20
2022-07-29T10:45:22.610Z,99117.00
2022-07-29T10:48:10.070Z,99121.60
2022-07-29T10:51:07.005Z,99121.80
2022-07-29T10:53:55.481Z,99124.40
2022-07-29T10:56:35.518Z,99115.60
2022-07-29T10:59:36.416Z,99114.60
2022-07-29T11:02:56.611Z,99098.00
2022-07-29T11:05:53.212Z,99105.20
2022-07-29T11:08:31.928Z,99098.60
2022-07-29T11:11:44.158Z,99101.20
2022-07-29T11:15:02.755Z,99104.60
2022-07-29T11:18:17.412Z,99097.60
2022-07-29T11:20:55.371Z,99093.60
2022-07-29T11:23:36.864Z,99092.40
2022-07-29T11:26:26.854Z,99090.00
2022-07-29T11:29:22.008Z,99087.40
2022-07-29T11:32:18.326Z,99089.20
2022-07-29T11:35:37.265Z,99087.60
2022-07-29T11:38:32.843Z,99087.20
2022-07-29T11:41:31.879Z,99088.80
2022-07-29T11:44:09.023Z,99094.00
2022-07-29T11:46:53.971Z,99083.00
2022-07-29T11:49:33.193Z,99082.20
2022-07-29T11:52:12.492Z,99086.20
2022-07-29T11:54:57.702Z,99094.20
2022-07-29T12:00:40.511Z,99077.60
2022-07-29T12:03:35.568Z,99068.40
2022-07-29T12:06:21.077Z,99076.80
2022-07-29T12:07:02.364Z,99083.40
2022-07-29T12:08:57.326Z,99068.00
2022-07-29T12:11:34.175Z,99069.80
2022-07-29T12:14:10.513Z,99067.40
2022-07-29T12:16:48.241Z,99054.00
2022-07-29T12:19:24.743Z,99047.60
2022-07-29T12:22:02.473Z,99058.00
2022-07-29T12:24:50.700Z,99055.40
2022-07-29T12:27:33.886Z,99052.20
2022-07-29T12:30:19.241Z,99048.60
2022-07-29T12:32:56.542Z,99062.20
2022-07-29T12:35:33.105Z,99056.80
2022-07-29T12:38:11.577Z,99043.60
2022-07-29T12:40:50.017Z,99053.20
2022-07-29T12:43:27.741Z,99035.00
2022-07-29T12:46:18.343Z,99032.40
2022-07-29T12:48:59.881Z,99041.40
2022-07-29T12:51:41.838Z,99034.00
2022-07-29T12:54:19.403Z,99024.60
2022-07-29T12:57:05.250Z,99034.00
2022-07-29T12:59:41.389Z,99026.40
2022-07-29T13:02:28.663Z,99014.80
2022-07-29T13:05:07.523Z,99020.80
2022-07-29T13:07:55.111Z,99012.60
2022-07-29T13:10:39.216Z,99011.80
2022-07-29T13:13:18.431Z,99009.40
2022-07-29T13:16:11.693Z,99014.60
2022-07-29T13:18:47.651Z,99003.20
2022-07-29T13:21:23.692Z,99008.00
2022-07-29T13:23:59.702Z,99002.00
2022-07-29T13:26:35.946Z,98999.60
2022-07-29T13:29:11.895Z,98997.40
2022-07-29T13:31:47.994Z,98999.80
2022-07-29T13:34:25.332Z,98998.40
2022-07-29T13:37:01.385Z,98998.00
2022-07-29T13:39:38.308Z,98995.00
2022-07-29T13:42:15.285Z,98995.20
2022-07-29T13:44:52.786Z,98988.20
2022-07-29T13:47:32.381Z,98983.80
2022-07-29T13:50:12.465Z,98976.20
2022-07-29T13:52:49.610Z,98973.00
2022-07-29T13:55:26.029Z,98972.00
2022-07-29T13:58:02.113Z,98967.60
2022-07-29T14:00:40.365Z,98963.00
2022-07-29T14:03:16.348Z,98966.40
2022-07-29T14:05:52.590Z,98960.20
2022-07-29T14:08:29.001Z,98963.60
2022-07-29T14:11:05.426Z,98958.00
2022-07-29T14:13:41.476Z,98962.80
2022-07-29T14:16:17.895Z,98955.80
2022-07-29T14:18:53.921Z,98956.80
2022-07-29T14:21:29.897Z,98958.60
2022-07-29T14:24:17.083Z,98951.20
2022-07-29T14:26:54.221Z,98954.40
2022-07-29T14:29:37.750Z,98949.40
2022-07-29T14:32:15.995Z,98948.00
2022-07-29T14:34:52.086Z,98940.80
2022-07-29T14:37:28.255Z,98945.60
2022-07-29T14:40:16.973Z,98940.20
2022-07-29T14:42:53.075Z,98941.80
2022-07-29T14:45:30.133Z,98938.60
2022-07-29T14:48:06.361Z,98938.40
2022-07-29T14:50:42.484Z,98928.20
2022-07-29T14:53:18.442Z,98916.60
2022-07-29T14:55:54.943Z,98918.00
2022-07-29T14:58:31.031Z,98915.20
2022-07-29T15:01:07.268Z,98911.60
2022-07-29T15:03:43.207Z,98911.80
2022-07-29T15:06:19.322Z,98910.00
2022-07-29T15:08:55.201Z,98919.40
2022-07-29T15:11:31.278Z,98921.20
2022-07-29T15:14:13.252Z,98922.20
2022-07-29T15:16:49.473Z,98922.80
2022-07-29T15:19:29.373Z,98924.00
2022-07-29T15:22:07.086Z,98930.00
2022-07-29T15:24:42.992Z,98936.00
2022-07-29T15:27:18.919Z,98942.40
2022-07-29T15:29:54.871Z,98946.20
2022-07-29T15:32:33.429Z,98948.00
2022-07-29T15:35:11.258Z,98943.40
2022-07-29T15:37:48.938Z,98936.20
2022-07-29T15:40:25.796Z,98932.00
2022-07-29T15:43:06.833Z,98932.00
2022-07-29T15:46:07.417Z,98931.80
2022-07-29T15:48:44.453Z,98930.40
2022-07-29T15:51:20.371Z,98923.40
2022-07-29T15:53:56.820Z,98926.20
2022-07-29T15:56:33.907Z,98926.80
2022-07-29T15:59:22.408Z,98929.60
2022-07-29T16:01:58.726Z,98933.60
2022-07-29T16:04:35.129Z,98930.20
2022-07-29T16:07:11.404Z,98932.20
2022-07-29T16:09:52.809Z,98933.80
2022-07-29T16:12:29.268Z,98939.40
2022-07-29T16:15:09.743Z,98937.60
2022-07-29T16:17:47.051Z,98937.20
2022-07-29T16:20:23.464Z,98942.20
2022-07-29T16:22:59.489Z,98944.20
2022-07-29T16:25:58.587Z,98953.40
2022-07-29T16:28:31.588Z,98957.80
2022-07-29T16:31:07.513Z,98963.80
2022-07-29T16:33:54.342Z,98969.40
2022-07-29T16:36:31.840Z,98975.40
2022-07-29T16:39:08.415Z,98978.00
2022-07-29T16:41:44.444Z,98985.60
2022-07-29T16:44:20.401Z,99005.00
2022-07-29T16:47:01.419Z,99026.00
2022-07-29T16:49:38.592Z,99029.80
2022-07-29T16:52:14.726Z,99031.80
2022-07-29T16:54:52.570Z,99048.40
2022-07-29T16:57:28.696Z,99048.00
2022-07-29T17:00:05.884Z,99045.40
2022-07-29T17:02:41.905Z,99042.40
2022-07-29T17:05:18.139Z,99053.40
2022-07-29T17:07:54.765Z,99047.40
2022-07-29T17:10:31.017Z,99050.40
2022-07-29T17:13:07.028Z,99052.00
2022-07-29T17:15:45.917Z,99055.60
2022-07-29T17:18:21.873Z,99056.00
2022-07-29T17:20:57.916Z,99057.60
2022-07-29T17:23:35.988Z,99057.80
2022-07-29T17:26:11.975Z,99052.60
2022-07-29T17:28:49.106Z,99051.80
2022-07-29T17:31:25.221Z,99042.20
2022-07-29T17:34:02.861Z,99043.40
2022-07-29T17:36:40.012Z,99041.00
2022-07-29T17:39:16.140Z,99044.80
2022-07-29T17:41:52.069Z,99054.20
2022-07-29T17:44:28.049Z,99052.20
2022-07-29T17:47:04.174Z,99052.60
2022-07-29T17:49:40.152Z,99050.40
2022-07-29T17:52:18.464Z,99050.40
2022-07-29T17:54:55.016Z,99047.20
2022-07-29T17:57:31.522Z,99045.80
2022-07-29T18:00:15.610Z,99050.00
2022-07-29T18:02:55.329Z,99046.20
2022-07-29T18:05:31.581Z,99040.40
2022-07-29T18:08:07.939Z,99038.80
2022-07-29T18:10:44.119Z,99038.40
2022-07-29T18:13:20.448Z,99039.80
2022-07-29T18:16:00.042Z,99042.80
2022-07-29T18:18:36.754Z,99037.80
2022-07-29T18:21:13.104Z,99040.60
2022-07-29T18:23:50.806Z,99039.40
2022-07-29T18:26:30.471Z,99041.60
2022-07-29T18:29:06.625Z,99033.80
2022-07-29T18:31:46.543Z,99032.40
2022-07-29T18:34:22.867Z,99033.40
2022-07-29T18:36:59.266Z,99034.80
2022-07-29T18:39:36.019Z,99036.00
2022-07-29T18:42:12.400Z,99027.80
2022-07-29T18:44:49.170Z,99023.60
2022-07-29T18:47:32.307Z,99015.80
2022-07-29T18:50:10.763Z,99011.00
2022-07-29T18:52:47.265Z,99000.60
2022-07-29T18:55:24.470Z,98996.20
2022-07-29T18:58:00.432Z,98995.40
2022-07-29T19:00:36.510Z,98986.40
2022-07-29T19:03:12.628Z,98981.40
2022-07-29T19:05:49.438Z,98980.40
2022-07-29T19:08:25.625Z,98984.20
2022-07-29T19:11:02.944Z,98985.80
2022-07-29T19:13:39.108Z,98972.00
2022-07-29T19:16:15.426Z,98968.40
2022-07-29T19:18:51.639Z,98967.00
2022-07-29T19:21:27.950Z,98967.20
2022-07-29T19:24:07.668Z,98971.00
2022-07-29T19:26:46.910Z,98972.80
2022-07-29T19:29:23.656Z,98978.00
2022-07-29T19:32:01.486Z,98979.60
2022-07-29T19:34:37.648Z,98983.20
2022-07-29T19:37:13.727Z,98996.40
2022-07-29T19:39:49.682Z,99016.80
2022-07-29T19:42:25.801Z,99046.60
2022-07-29T19:45:01.839Z,99052.00
2022-07-29T19:47:38.442Z,99043.20
2022-07-29T19:50:15.818Z,99050.00
2022-07-29T19:52:52.336Z,99052.20
2022-07-29T19:55:28.442Z,99059.60
2022-07-29T19:58:06.033Z,99050.20
2022-07-29T20:00:44.789Z,99040.60
2022-07-29T20:03:20.697Z,99041.60
2022-07-29T20:05:56.840Z,99033.40
2022-07-29T20:08:32.881Z,99029.20
2022-07-29T20:11:09.710Z,99018.60
2022-07-29T20:13:45.541Z,99016.20
2022-07-29T20:16:22.524Z,99011.80
2022-07-29T20:19:01.876Z,99006.40
2022-07-29T20:21:38.091Z,99005.40
2022-07-29T20:24:14.885Z,99002.40
2022-07-29T20:26:51.130Z,99005.80
2022-07-29T20:29:27.081Z,98995.60
2022-07-29T20:32:04.548Z,98985.20
2022-07-29T20:34:41.428Z,98980.40
2022-07-29T20:37:20.655Z,98976.60
2022-07-29T20:39:56.590Z,98976.20
2022-07-29T20:42:32.619Z,98974.60
2022-07-29T20:45:11.016Z,98974.60
2022-07-29T20:47:47.084Z,98975.80
2022-07-29T20:50:24.587Z,98970.40
2022-07-29T20:53:00.585Z,98971.40
2022-07-29T20:55:36.604Z,98971.40
2022-07-29T20:58:13.128Z,98965.20
2022-07-29T21:00:49.201Z,98962.20
2022-07-29T21:03:25.254Z,98962.00
2022-07-29T21:06:01.725Z,98964.00
2022-07-29T21:08:38.296Z,98958.60
2022-07-29T21:11:14.281Z,98954.20
2022-07-29T21:13:50.584Z,98957.60
2022-07-29T21:16:28.808Z,98959.40
2022-07-29T21:19:05.171Z,98966.00
2022-07-29T21:21:41.356Z,98961.00
2022-07-29T21:24:17.393Z,98958.20
2022-07-29T21:27:20.695Z,98953.60
2022-07-29T21:29:57.489Z,98957.40
2022-07-29T21:32:36.635Z,98959.00
2022-07-29T21:35:35.860Z,98960.20
2022-07-29T21:38:09.520Z,98961.60
2022-07-29T21:40:45.581Z,98966.40
2022-07-29T21:43:23.422Z,98973.60
2022-07-29T21:46:00.283Z,98971.20
2022-07-29T21:48:37.091Z,98971.40
2022-07-29T21:51:15.265Z,98972.80
2022-07-29T21:53:53.145Z,98973.40
2022-07-29T21:56:31.926Z,98976.80
2022-07-29T21:59:09.804Z,98974.60
2022-07-29T22:01:49.131Z,98972.00
2022-07-29T22:04:25.111Z,98977.60
2022-07-29T22:07:01.903Z,98977.80
2022-07-29T22:09:38.266Z,98978.40
2022-07-29T22:12:14.480Z,98977.00
2022-07-29T22:14:50.382Z,98976.20
2022-07-29T22:17:26.347Z,98972.80
2022-07-29T22:20:06.140Z,98977.20
2022-07-29T22:22:42.532Z,98975.40
2022-07-29T22:25:18.990Z,98978.40
2022-07-29T22:27:54.949Z,98978.00
2022-07-29T22:30:31.221Z,98974.40
2022-07-29T22:33:07.328Z,98972.20
2022-07-29T22:35:43.162Z,98971.00
2022-07-29T22:38:19.643Z,98970.40
2022-07-29T22:41:00.702Z,98963.20
2022-07-29T22:43:39.315Z,98959.40
2022-07-29T22:46:16.034Z,98954.60
2022-07-29T22:48:52.093Z,98948.20
2022-07-29T22:51:28.053Z,98939.80
2022-07-29T22:54:04.458Z,98931.60
2022-07-29T22:56:40.436Z,98922.60
2022-07-29T22:59:16.449Z,98915.60
2022-07-29T23:01:52.542Z,98910.60
2022-07-29T23:04:29.179Z,98905.20
2022-07-29T23:07:05.090Z,98901.20
2022-07-29T23:09:41.150Z,98893.20
2022-07-29T23:12:17.685Z,98891.20
2022-07-29T23:14:53.657Z,98886.60
2022-07-29T23:17:29.805Z,98896.60
2022-07-29T23:20:09.942Z,98903.20
2022-07-29T23:22:46.061Z,98908.40
2022-07-29T23:25:22.382Z,98908.40
2022-07-29T23:27:58.301Z,98900.60
2022-07-29T23:30:34.525Z,98899.20
2022-07-29T23:33:10.519Z,98899.00
2022-07-29T23:35:46.581Z,98896.60
2022-07-29T23:38:22.510Z,98895.00
2022-07-29T23:40:58.952Z,98886.20
2022-07-29T23:43:37.548Z,98884.40
2022-07-29T23:46:13.888Z,98874.60
2022-07-29T23:48:51.945Z,98859.80
2022-07-29T23:51:29.342Z,98850.00
2022-07-29T23:54:09.232Z,98844.20
